sensor_id;sensor_type;location;lat;lon;timestamp;pressure;altitude;pressure_sealevel;temperature
76895;BMP280;65855;42.030;13.078;2023-03-25T00:01:30;93846.97;;;6.50
76895;BMP280;65855;42.030;13.078;2023-03-25T00:04:01;93854.50;;;6.50
76895;BMP280;65855;42.030;13.078;2023-03-25T00:06:29;93842.41;;;6.42
76895;BMP280;65855;42.030;13.078;2023-03-25T00:08:55;93831.47;;;6.58
76895;BMP280;65855;42.030;13.078;2023-03-25T00:11:22;93840.81;;;6.96
76895;BMP280;65855;42.030;13.078;2023-03-25T00:13:48;93847.84;;;7.24
76895;BMP280;65855;42.030;13.078;2023-03-25T00:16:14;93843.34;;;7.21
76895;BMP280;65855;42.030;13.078;2023-03-25T00:18:39;93841.81;;;7.00
76895;BMP280;65855;42.030;13.078;2023-03-25T00:21:06;93830.75;;;6.87
76895;BMP280;65855;42.030;13.078;2023-03-25T00:23:35;93830.47;;;6.64
76895;BMP280;65855;42.030;13.078;2023-03-25T00:26:02;93828.88;;;6.33
76895;BMP280;65855;42.030;13.078;2023-03-25T00:28:29;93819.34;;;6.25
76895;BMP280;65855;42.030;13.078;2023-03-25T00:31:02;93819.88;;;6.37
76895;BMP280;65855;42.030;13.078;2023-03-25T00:33:28;93804.66;;;6.58
76895;BMP280;65855;42.030;13.078;2023-03-25T00:35:54;93807.44;;;6.81
76895;BMP280;65855;42.030;13.078;2023-03-25T00:38:27;93800.69;;;6.92
76895;BMP280;65855;42.030;13.078;2023-03-25T00:41:23;93782.88;;;7.52
76895;BMP280;65855;42.030;13.078;2023-03-25T00:43:55;93785.66;;;7.06
76895;BMP280;65855;42.030;13.078;2023-03-25T00:46:22;93759.75;;;7.69
76895;BMP280;65855;42.030;13.078;2023-03-25T00:48:49;93767.72;;;8.11
76895;BMP280;65855;42.030;13.078;2023-03-25T00:51:15;93761.25;;;7.75
76895;BMP280;65855;42.030;13.078;2023-03-25T00:53:46;93769.88;;;7.25
76895;BMP280;65855;42.030;13.078;2023-03-25T00:56:12;93759.75;;;7.74
76895;BMP280;65855;42.030;13.078;2023-03-25T00:58:38;93766.22;;;7.90
76895;BMP280;65855;42.030;13.078;2023-03-25T01:01:12;93765.53;;;7.75
76895;BMP280;65855;42.030;13.078;2023-03-25T01:03:39;93764.34;;;7.48
76895;BMP280;65855;42.030;13.078;2023-03-25T01:06:15;93771.88;;;7.38
76895;BMP280;65855;42.030;13.078;2023-03-25T01:08:42;93769.38;;;7.18
76895;BMP280;65855;42.030;13.078;2023-03-25T01:11:20;93764.88;;;7.01
76895;BMP280;65855;42.030;13.078;2023-03-25T01:13:45;93769.88;;;6.86
76895;BMP280;65855;42.030;13.078;2023-03-25T01:16:11;93763.75;;;6.19
76895;BMP280;65855;42.030;13.078;2023-03-25T01:18:37;93763.59;;;5.79
76895;BMP280;65855;42.030;13.078;2023-03-25T01:21:06;93755.72;;;5.61
76895;BMP280;65855;42.030;13.078;2023-03-25T01:23:32;93744.94;;;5.56
76895;BMP280;65855;42.030;13.078;2023-03-25T01:25:58;93741.81;;;5.75
76895;BMP280;65855;42.030;13.078;2023-03-25T01:28:23;93750.56;;;5.73
76895;BMP280;65855;42.030;13.078;2023-03-25T01:30:49;93740.03;;;5.71
76895;BMP280;65855;42.030;13.078;2023-03-25T01:33:14;93739.75;;;5.67
76895;BMP280;65855;42.030;13.078;2023-03-25T01:35:40;93744.97;;;5.66
76895;BMP280;65855;42.030;13.078;2023-03-25T01:38:05;93744.88;;;5.41
76895;BMP280;65855;42.030;13.078;2023-03-25T01:40:31;93741.28;;;5.27
76895;BMP280;65855;42.030;13.078;2023-03-25T01:42:56;93737.63;;;5.04
76895;BMP280;65855;42.030;13.078;2023-03-25T01:48:03;93718.16;;;5.06
76895;BMP280;65855;42.030;13.078;2023-03-25T01:50:31;93728.59;;;4.98
76895;BMP280;65855;42.030;13.078;2023-03-25T01:52:59;93731.50;;;5.21
76895;BMP280;65855;42.030;13.078;2023-03-25T01:55:26;93733.34;;;5.35
76895;BMP280;65855;42.030;13.078;2023-03-25T01:57:53;93723.66;;;5.49
76895;BMP280;65855;42.030;13.078;2023-03-25T02:00:21;93724.66;;;5.48
76895;BMP280;65855;42.030;13.078;2023-03-25T02:02:47;93733.94;;;5.11
76895;BMP280;65855;42.030;13.078;2023-03-25T02:05:19;93732.91;;;5.07
76895;BMP280;65855;42.030;13.078;2023-03-25T02:07:48;93738.72;;;4.56
76895;BMP280;65855;42.030;13.078;2023-03-25T02:10:15;93732.69;;;4.78
76895;BMP280;65855;42.030;13.078;2023-03-25T02:12:41;93740.84;;;4.69
76895;BMP280;65855;42.030;13.078;2023-03-25T02:15:10;93737.88;;;5.03
76895;BMP280;65855;42.030;13.078;2023-03-25T02:23:47;93747.19;;;4.50
76895;BMP280;65855;42.030;13.078;2023-03-25T02:32:04;93744.72;;;4.86
76895;BMP280;65855;42.030;13.078;2023-03-25T02:34:36;93724.91;;;4.75
76895;BMP280;65855;42.030;13.078;2023-03-25T02:42:37;93724.84;;;4.65
76895;BMP280;65855;42.030;13.078;2023-03-25T02:45:25;93724.44;;;4.78
76895;BMP280;65855;42.030;13.078;2023-03-25T02:47:57;93717.81;;;4.93
76895;BMP280;65855;42.030;13.078;2023-03-25T02:50:37;93713.59;;;4.98
76895;BMP280;65855;42.030;13.078;2023-03-25T02:53:09;93707.09;;;4.97
76895;BMP280;65855;42.030;13.078;2023-03-25T02:55:36;93715.41;;;5.07
76895;BMP280;65855;42.030;13.078;2023-03-25T02:58:10;93710.41;;;5.53
76895;BMP280;65855;42.030;13.078;2023-03-25T03:00:38;93708.03;;;5.77
76895;BMP280;65855;42.030;13.078;2023-03-25T03:03:05;93700.09;;;5.85
76895;BMP280;65855;42.030;13.078;2023-03-25T03:05:36;93701.59;;;5.86
76895;BMP280;65855;42.030;13.078;2023-03-25T03:11:00;93696.78;;;5.70
76895;BMP280;65855;42.030;13.078;2023-03-25T03:16:33;93702.06;;;4.92
76895;BMP280;65855;42.030;13.078;2023-03-25T03:24:36;93686.25;;;4.77
76895;BMP280;65855;42.030;13.078;2023-03-25T03:27:12;93686.66;;;5.05
76895;BMP280;65855;42.030;13.078;2023-03-25T03:29:52;93680.75;;;5.21
76895;BMP280;65855;42.030;13.078;2023-03-25T03:32:27;93680.50;;;5.17
76895;BMP280;65855;42.030;13.078;2023-03-25T03:34:58;93690.84;;;4.95
76895;BMP280;65855;42.030;13.078;2023-03-25T03:37:39;93684.25;;;5.20
76895;BMP280;65855;42.030;13.078;2023-03-25T03:40:10;93679.63;;;5.43
76895;BMP280;65855;42.030;13.078;2023-03-25T03:42:42;93683.53;;;5.75
76895;BMP280;65855;42.030;13.078;2023-03-25T03:45:14;93674.50;;;5.69
76895;BMP280;65855;42.030;13.078;2023-03-25T03:47:42;93683.91;;;5.52
76895;BMP280;65855;42.030;13.078;2023-03-25T03:50:15;93673.31;;;5.30
76895;BMP280;65855;42.030;13.078;2023-03-25T03:52:55;93678.50;;;4.78
76895;BMP280;65855;42.030;13.078;2023-03-25T03:55:34;93682.13;;;4.61
76895;BMP280;65855;42.030;13.078;2023-03-25T03:58:07;93681.25;;;4.46
76895;BMP280;65855;42.030;13.078;2023-03-25T04:00:47;93672.31;;;4.50
76895;BMP280;65855;42.030;13.078;2023-03-25T04:03:20;93682.66;;;4.63
76895;BMP280;65855;42.030;13.078;2023-03-25T04:05:59;93685.97;;;4.43
76895;BMP280;65855;42.030;13.078;2023-03-25T04:08:33;93686.25;;;4.46
76895;BMP280;65855;42.030;13.078;2023-03-25T04:11:04;93690.13;;;4.32
76895;BMP280;65855;42.030;13.078;2023-03-25T04:13:38;93700.88;;;4.33
76895;BMP280;65855;42.030;13.078;2023-03-25T04:16:06;93696.56;;;4.29
76895;BMP280;65855;42.030;13.078;2023-03-25T04:18:31;93706.16;;;4.41
76895;BMP280;65855;42.030;13.078;2023-03-25T04:20:59;93699.72;;;4.45
76895;BMP280;65855;42.030;13.078;2023-03-25T04:23:28;93700.53;;;4.25
76895;BMP280;65855;42.030;13.078;2023-03-25T04:25:54;93714.47;;;4.21
76895;BMP280;65855;42.030;13.078;2023-03-25T04:28:20;93714.41;;;3.69
76895;BMP280;65855;42.030;13.078;2023-03-25T04:30:48;93709.75;;;3.77
76895;BMP280;65855;42.030;13.078;2023-03-25T04:33:20;93712.59;;;3.85
76895;BMP280;65855;42.030;13.078;2023-03-25T04:35:46;93710.38;;;3.26
76895;BMP280;65855;42.030;13.078;2023-03-25T04:38:15;93712.94;;;3.31
76895;BMP280;65855;42.030;13.078;2023-03-25T04:40:41;93712.53;;;3.59
76895;BMP280;65855;42.030;13.078;2023-03-25T04:43:12;93711.44;;;3.30
76895;BMP280;65855;42.030;13.078;2023-03-25T04:45:37;93720.41;;;3.52
76895;BMP280;65855;42.030;13.078;2023-03-25T04:48:03;93726.28;;;3.62
76895;BMP280;65855;42.030;13.078;2023-03-25T04:50:30;93726.22;;;3.99
76895;BMP280;65855;42.030;13.078;2023-03-25T04:52:57;93724.06;;;3.44
76895;BMP280;65855;42.030;13.078;2023-03-25T04:55:24;93720.03;;;3.81
76895;BMP280;65855;42.030;13.078;2023-03-25T04:57:52;93714.91;;;3.71
76895;BMP280;65855;42.030;13.078;2023-03-25T05:00:20;93709.13;;;3.44
76895;BMP280;65855;42.030;13.078;2023-03-25T05:02:51;93705.19;;;3.48
76895;BMP280;65855;42.030;13.078;2023-03-25T05:05:20;93706.69;;;3.70
76895;BMP280;65855;42.030;13.078;2023-03-25T05:07:48;93702.06;;;4.30
76895;BMP280;65855;42.030;13.078;2023-03-25T05:10:19;93704.41;;;4.42
76895;BMP280;65855;42.030;13.078;2023-03-25T05:12:45;93696.56;;;4.29
76895;BMP280;65855;42.030;13.078;2023-03-25T05:15:11;93702.59;;;4.32
76895;BMP280;65855;42.030;13.078;2023-03-25T05:17:37;93697.63;;;4.32
76895;BMP280;65855;42.030;13.078;2023-03-25T05:20:04;93717.13;;;4.40
76895;BMP280;65855;42.030;13.078;2023-03-25T05:22:33;93723.00;;;4.25
76895;BMP280;65855;42.030;13.078;2023-03-25T05:24:59;93727.69;;;4.47
76895;BMP280;65855;42.030;13.078;2023-03-25T05:27:27;93725.13;;;4.37
76895;BMP280;65855;42.030;13.078;2023-03-25T05:29:55;93717.59;;;4.11
76895;BMP280;65855;42.030;13.078;2023-03-25T05:32:23;93721.38;;;4.14
76895;BMP280;65855;42.030;13.078;2023-03-25T05:34:53;93730.50;;;4.30
76895;BMP280;65855;42.030;13.078;2023-03-25T05:37:18;93733.63;;;4.41
76895;BMP280;65855;42.030;13.078;2023-03-25T05:39:44;93748.59;;;4.41
76895;BMP280;65855;42.030;13.078;2023-03-25T05:42:10;93747.75;;;4.31
76895;BMP280;65855;42.030;13.078;2023-03-25T05:44:35;93751.19;;;4.04
76895;BMP280;65855;42.030;13.078;2023-03-25T05:47:03;93752.78;;;3.89
76895;BMP280;65855;42.030;13.078;2023-03-25T05:49:29;93758.75;;;3.88
76895;BMP280;65855;42.030;13.078;2023-03-25T05:51:54;93764.59;;;3.56
76895;BMP280;65855;42.030;13.078;2023-03-25T05:54:20;93758.41;;;3.80
76895;BMP280;65855;42.030;13.078;2023-03-25T05:56:49;93757.97;;;3.66
76895;BMP280;65855;42.030;13.078;2023-03-25T05:59:15;93768.50;;;3.68
76895;BMP280;65855;42.030;13.078;2023-03-25T06:01:41;93775.06;;;3.95
76895;BMP280;65855;42.030;13.078;2023-03-25T06:04:12;93773.06;;;4.96
76895;BMP280;65855;42.030;13.078;2023-03-25T06:06:38;93779.19;;;4.84
76895;BMP280;65855;42.030;13.078;2023-03-25T06:09:05;93778.88;;;5.42
76895;BMP280;65855;42.030;13.078;2023-03-25T06:11:31;93772.63;;;5.85
76895;BMP280;65855;42.030;13.078;2023-03-25T06:14:02;93763.31;;;6.46
76895;BMP280;65855;42.030;13.078;2023-03-25T06:16:28;93762.34;;;6.57
76895;BMP280;65855;42.030;13.078;2023-03-25T06:18:54;93760.34;;;6.73
76895;BMP280;65855;42.030;13.078;2023-03-25T06:21:29;93751.31;;;7.36
76895;BMP280;65855;42.030;13.078;2023-03-25T06:23:58;93754.31;;;7.38
76895;BMP280;65855;42.030;13.078;2023-03-25T06:26:24;93742.78;;;7.47
76895;BMP280;65855;42.030;13.078;2023-03-25T06:28:50;93736.53;;;7.30
76895;BMP280;65855;42.030;13.078;2023-03-25T06:31:18;93729.13;;;7.77
76895;BMP280;65855;42.030;13.078;2023-03-25T06:33:45;93725.59;;;7.83
76895;BMP280;65855;42.030;13.078;2023-03-25T06:36:13;93719.06;;;7.92
76895;BMP280;65855;42.030;13.078;2023-03-25T06:38:39;93724.69;;;8.22
76895;BMP280;65855;42.030;13.078;2023-03-25T06:41:05;93709.50;;;8.79
76895;BMP280;65855;42.030;13.078;2023-03-25T06:43:32;93714.75;;;9.15
76895;BMP280;65855;42.030;13.078;2023-03-25T06:45:57;93715.31;;;9.35
76895;BMP280;65855;42.030;13.078;2023-03-25T06:48:23;93705.19;;;9.91
76895;BMP280;65855;42.030;13.078;2023-03-25T06:50:49;93708.16;;;10.16
76895;BMP280;65855;42.030;13.078;2023-03-25T06:53:15;93706.53;;;10.43
76895;BMP280;65855;42.030;13.078;2023-03-25T06:55:41;93710.47;;;10.67
76895;BMP280;65855;42.030;13.078;2023-03-25T06:58:06;93704.72;;;11.11
76895;BMP280;65855;42.030;13.078;2023-03-25T07:00:32;93690.09;;;11.84
76895;BMP280;65855;42.030;13.078;2023-03-25T07:02:57;93696.69;;;13.11
76895;BMP280;65855;42.030;13.078;2023-03-25T07:05:23;93689.66;;;13.98
76895;BMP280;65855;42.030;13.078;2023-03-25T07:07:49;93698.41;;;14.64
76895;BMP280;65855;42.030;13.078;2023-03-25T07:10:14;93686.53;;;15.42
76895;BMP280;65855;42.030;13.078;2023-03-25T07:12:40;93693.78;;;15.69
76895;BMP280;65855;42.030;13.078;2023-03-25T07:15:06;93687.63;;;15.78
76895;BMP280;65855;42.030;13.078;2023-03-25T07:17:32;93691.44;;;16.29
76895;BMP280;65855;42.030;13.078;2023-03-25T07:19:58;93697.88;;;16.27
76895;BMP280;65855;42.030;13.078;2023-03-25T07:22:23;93696.41;;;16.46
76895;BMP280;65855;42.030;13.078;2023-03-25T07:24:49;93706.91;;;16.44
76895;BMP280;65855;42.030;13.078;2023-03-25T07:27:16;93693.66;;;16.91
76895;BMP280;65855;42.030;13.078;2023-03-25T07:29:42;93688.94;;;17.21
76895;BMP280;65855;42.030;13.078;2023-03-25T07:32:07;93691.03;;;17.51
76895;BMP280;65855;42.030;13.078;2023-03-25T07:34:33;93678.47;;;17.34
76895;BMP280;65855;42.030;13.078;2023-03-25T07:36:58;93684.19;;;17.32
76895;BMP280;65855;42.030;13.078;2023-03-25T07:39:23;93683.91;;;17.45
76895;BMP280;65855;42.030;13.078;2023-03-25T07:41:53;93681.47;;;17.36
76895;BMP280;65855;42.030;13.078;2023-03-25T07:44:18;93675.25;;;17.93
76895;BMP280;65855;42.030;13.078;2023-03-25T07:46:47;93679.16;;;18.49
76895;BMP280;65855;42.030;13.078;2023-03-25T07:49:14;93678.56;;;17.81
76895;BMP280;65855;42.030;13.078;2023-03-25T07:51:40;93685.25;;;17.31
76895;BMP280;65855;42.030;13.078;2023-03-25T07:54:06;93683.13;;;18.35
76895;BMP280;65855;42.030;13.078;2023-03-25T07:56:31;93682.81;;;18.87
76895;BMP280;65855;42.030;13.078;2023-03-25T07:58:57;93679.78;;;18.97
76895;BMP280;65855;42.030;13.078;2023-03-25T08:01:22;93690.22;;;16.75
76895;BMP280;65855;42.030;13.078;2023-03-25T08:03:48;93684.16;;;17.87
76895;BMP280;65855;42.030;13.078;2023-03-25T08:06:13;93675.72;;;18.69
76895;BMP280;65855;42.030;13.078;2023-03-25T08:08:39;93677.00;;;19.28
76895;BMP280;65855;42.030;13.078;2023-03-25T08:11:04;93683.31;;;19.61
76895;BMP280;65855;42.030;13.078;2023-03-25T08:13:30;93670.22;;;19.63
76895;BMP280;65855;42.030;13.078;2023-03-25T08:15:55;93673.31;;;19.68
76895;BMP280;65855;42.030;13.078;2023-03-25T08:18:21;93685.25;;;20.10
76895;BMP280;65855;42.030;13.078;2023-03-25T08:20:48;93681.22;;;19.78
76895;BMP280;65855;42.030;13.078;2023-03-25T08:23:14;93687.84;;;19.37
76895;BMP280;65855;42.030;13.078;2023-03-25T08:25:43;93685.50;;;20.05
76895;BMP280;65855;42.030;13.078;2023-03-25T08:28:09;93675.34;;;20.57
76895;BMP280;65855;42.030;13.078;2023-03-25T08:30:37;93669.78;;;21.26
76895;BMP280;65855;42.030;13.078;2023-03-25T08:33:04;93674.09;;;20.85
76895;BMP280;65855;42.030;13.078;2023-03-25T08:35:29;93664.50;;;21.60
76895;BMP280;65855;42.030;13.078;2023-03-25T08:37:55;93662.31;;;22.03
76895;BMP280;65855;42.030;13.078;2023-03-25T08:40:21;93653.91;;;21.40
76895;BMP280;65855;42.030;13.078;2023-03-25T08:42:46;93653.53;;;22.29
76895;BMP280;65855;42.030;13.078;2023-03-25T08:45:12;93652.84;;;22.07
76895;BMP280;65855;42.030;13.078;2023-03-25T08:47:39;93653.75;;;23.01
76895;BMP280;65855;42.030;13.078;2023-03-25T08:50:06;93661.16;;;23.74
76895;BMP280;65855;42.030;13.078;2023-03-25T08:52:32;93654.22;;;24.31
76895;BMP280;65855;42.030;13.078;2023-03-25T08:54:57;93647.53;;;24.19
76895;BMP280;65855;42.030;13.078;2023-03-25T08:57:23;93652.41;;;24.31
76895;BMP280;65855;42.030;13.078;2023-03-25T08:59:48;93660.31;;;24.06
76895;BMP280;65855;42.030;13.078;2023-03-25T09:02:15;93648.56;;;24.71
76895;BMP280;65855;42.030;13.078;2023-03-25T09:04:41;93659.56;;;24.58
76895;BMP280;65855;42.030;13.078;2023-03-25T09:07:07;93660.22;;;25.25
76895;BMP280;65855;42.030;13.078;2023-03-25T09:09:36;93666.22;;;25.43
76895;BMP280;65855;42.030;13.078;2023-03-25T09:12:03;93661.31;;;25.10
76895;BMP280;65855;42.030;13.078;2023-03-25T09:14:29;93675.47;;;25.54
76895;BMP280;65855;42.030;13.078;2023-03-25T09:16:54;93665.88;;;25.48
76895;BMP280;65855;42.030;13.078;2023-03-25T09:19:20;93673.16;;;25.25
76895;BMP280;65855;42.030;13.078;2023-03-25T09:21:46;93672.84;;;25.44
76895;BMP280;65855;42.030;13.078;2023-03-25T09:24:11;93671.44;;;25.84
76895;BMP280;65855;42.030;13.078;2023-03-25T09:26:37;93665.19;;;25.99
76895;BMP280;65855;42.030;13.078;2023-03-25T09:29:03;93669.59;;;25.88
76895;BMP280;65855;42.030;13.078;2023-03-25T09:31:28;93665.88;;;25.61
76895;BMP280;65855;42.030;13.078;2023-03-25T09:33:54;93679.25;;;22.07
76895;BMP280;65855;42.030;13.078;2023-03-25T09:36:20;93665.47;;;23.31
76895;BMP280;65855;42.030;13.078;2023-03-25T09:38:47;93653.16;;;23.14
76895;BMP280;65855;42.030;13.078;2023-03-25T09:44:21;93654.91;;;23.78
76895;BMP280;65855;42.030;13.078;2023-03-25T09:46:50;93641.16;;;24.07
76895;BMP280;65855;42.030;13.078;2023-03-25T09:49:22;93643.06;;;22.16
76895;BMP280;65855;42.030;13.078;2023-03-25T09:51:50;93642.38;;;23.37
76895;BMP280;65855;42.030;13.078;2023-03-25T09:54:29;93640.38;;;25.39
76895;BMP280;65855;42.030;13.078;2023-03-25T09:57:00;93646.28;;;26.77
76895;BMP280;65855;42.030;13.078;2023-03-25T09:59:49;93654.50;;;26.21
76895;BMP280;65855;42.030;13.078;2023-03-25T10:07:38;93658.16;;;26.30
76895;BMP280;65855;42.030;13.078;2023-03-25T10:10:31;93655.78;;;23.96
76895;BMP280;65855;42.030;13.078;2023-03-25T10:18:51;93680.97;;;19.68
76895;BMP280;65855;42.030;13.078;2023-03-25T10:21:43;93682.66;;;20.74
76895;BMP280;65855;42.030;13.078;2023-03-25T10:24:19;93673.13;;;23.60
76895;BMP280;65855;42.030;13.078;2023-03-25T10:27:00;93685.84;;;22.56
76895;BMP280;65855;42.030;13.078;2023-03-25T10:29:39;93670.19;;;24.04
76895;BMP280;65855;42.030;13.078;2023-03-25T10:32:15;93670.66;;;19.95
76895;BMP280;65855;42.030;13.078;2023-03-25T10:34:49;93669.59;;;20.45
76895;BMP280;65855;42.030;13.078;2023-03-25T10:37:24;93659.78;;;21.84
76895;BMP280;65855;42.030;13.078;2023-03-25T10:39:54;93666.63;;;24.71
76895;BMP280;65855;42.030;13.078;2023-03-25T10:42:32;93668.16;;;26.28
76895;BMP280;65855;42.030;13.078;2023-03-25T10:45:00;93670.63;;;23.34
76895;BMP280;65855;42.030;13.078;2023-03-25T10:47:29;93675.88;;;22.03
76895;BMP280;65855;42.030;13.078;2023-03-25T10:49:55;93669.47;;;19.62
76895;BMP280;65855;42.030;13.078;2023-03-25T10:52:23;93672.19;;;21.38
76895;BMP280;65855;42.030;13.078;2023-03-25T10:54:52;93666.09;;;23.92
76895;BMP280;65855;42.030;13.078;2023-03-25T10:57:23;93667.25;;;23.27
76895;BMP280;65855;42.030;13.078;2023-03-25T11:02:20;93668.72;;;22.66
76895;BMP280;65855;42.030;13.078;2023-03-25T11:04:55;93675.44;;;19.97
76895;BMP280;65855;42.030;13.078;2023-03-25T11:07:26;93663.63;;;22.70
76895;BMP280;65855;42.030;13.078;2023-03-25T11:10:13;93672.00;;;25.09
76895;BMP280;65855;42.030;13.078;2023-03-25T11:12:40;93660.41;;;26.11
76895;BMP280;65855;42.030;13.078;2023-03-25T11:15:33;93660.00;;;26.29
76895;BMP280;65855;42.030;13.078;2023-03-25T11:20:34;93645.91;;;26.78
76895;BMP280;65855;42.030;13.078;2023-03-25T11:23:07;93645.59;;;27.54
76895;BMP280;65855;42.030;13.078;2023-03-25T11:25:41;93652.78;;;27.16
76895;BMP280;65855;42.030;13.078;2023-03-25T11:31:23;93635.69;;;29.11
76895;BMP280;65855;42.030;13.078;2023-03-25T11:36:37;93623.50;;;29.34
76895;BMP280;65855;42.030;13.078;2023-03-25T11:41:41;93627.63;;;28.30
76895;BMP280;65855;42.030;13.078;2023-03-25T11:44:20;93620.69;;;30.03
76895;BMP280;65855;42.030;13.078;2023-03-25T11:46:47;93608.41;;;30.26
76895;BMP280;65855;42.030;13.078;2023-03-25T11:49:19;93608.88;;;29.95
76895;BMP280;65855;42.030;13.078;2023-03-25T11:51:48;93605.88;;;29.74
76895;BMP280;65855;42.030;13.078;2023-03-25T11:54:15;93614.34;;;28.21
76895;BMP280;65855;42.030;13.078;2023-03-25T11:56:43;93602.34;;;26.56
76895;BMP280;65855;42.030;13.078;2023-03-25T11:59:42;93598.38;;;25.56
76895;BMP280;65855;42.030;13.078;2023-03-25T12:02:29;93594.75;;;24.66
76895;BMP280;65855;42.030;13.078;2023-03-25T12:07:48;93613.47;;;23.47
76895;BMP280;65855;42.030;13.078;2023-03-25T12:13:10;93612.28;;;20.00
76895;BMP280;65855;42.030;13.078;2023-03-25T12:21:31;93618.88;;;25.01
76895;BMP280;65855;42.030;13.078;2023-03-25T12:38:21;93586.19;;;26.11
76895;BMP280;65855;42.030;13.078;2023-03-25T12:44:07;93587.59;;;26.47
76895;BMP280;65855;42.030;13.078;2023-03-25T12:46:59;93588.19;;;22.27
76895;BMP280;65855;42.030;13.078;2023-03-25T12:52:18;93589.22;;;27.04
76895;BMP280;65855;42.030;13.078;2023-03-25T13:00:45;93582.69;;;24.10
76895;BMP280;65855;42.030;13.078;2023-03-25T13:06:31;93579.91;;;26.19
76895;BMP280;65855;42.030;13.078;2023-03-25T13:09:04;93573.94;;;26.36
76895;BMP280;65855;42.030;13.078;2023-03-25T13:11:56;93564.84;;;24.48
76895;BMP280;65855;42.030;13.078;2023-03-25T13:14:30;93565.56;;;22.10
76895;BMP280;65855;42.030;13.078;2023-03-25T13:17:00;93567.75;;;24.40
76895;BMP280;65855;42.030;13.078;2023-03-25T13:19:28;93572.06;;;24.22
76895;BMP280;65855;42.030;13.078;2023-03-25T13:21:58;93571.50;;;22.43
76895;BMP280;65855;42.030;13.078;2023-03-25T13:24:43;93559.66;;;21.59
76895;BMP280;65855;42.030;13.078;2023-03-25T13:27:11;93563.34;;;23.38
76895;BMP280;65855;42.030;13.078;2023-03-25T13:32:35;93574.75;;;27.71
76895;BMP280;65855;42.030;13.078;2023-03-25T13:35:06;93572.50;;;29.44
76895;BMP280;65855;42.030;13.078;2023-03-25T13:37:45;93565.84;;;30.36
76895;BMP280;65855;42.030;13.078;2023-03-25T13:43:00;93591.88;;;22.58
76895;BMP280;65855;42.030;13.078;2023-03-25T13:45:34;93586.75;;;20.04
76895;BMP280;65855;42.030;13.078;2023-03-25T13:48:17;93584.19;;;20.94
76895;BMP280;65855;42.030;13.078;2023-03-25T13:50:44;93583.34;;;23.15
76895;BMP280;65855;42.030;13.078;2023-03-25T14:07:05;93580.06;;;20.70
76895;BMP280;65855;42.030;13.078;2023-03-25T14:13:05;93577.06;;;24.65
76895;BMP280;65855;42.030;13.078;2023-03-25T14:15:35;93568.22;;;20.63
76895;BMP280;65855;42.030;13.078;2023-03-25T14:18:03;93567.16;;;22.50
76895;BMP280;65855;42.030;13.078;2023-03-25T14:20:36;93560.69;;;25.24
76895;BMP280;65855;42.030;13.078;2023-03-25T14:23:05;93550.66;;;24.92
76895;BMP280;65855;42.030;13.078;2023-03-25T14:25:52;93548.53;;;25.66
76895;BMP280;65855;42.030;13.078;2023-03-25T14:28:30;93552.03;;;28.28
76895;BMP280;65855;42.030;13.078;2023-03-25T14:31:23;93549.03;;;23.90
76895;BMP280;65855;42.030;13.078;2023-03-25T14:39:08;93549.16;;;27.29
76895;BMP280;65855;42.030;13.078;2023-03-25T14:44:22;93544.16;;;21.77
76895;BMP280;65855;42.030;13.078;2023-03-25T14:52:28;93535.78;;;24.51
76895;BMP280;65855;42.030;13.078;2023-03-25T14:54:54;93526.69;;;23.48
76895;BMP280;65855;42.030;13.078;2023-03-25T14:57:22;93522.88;;;23.81
76895;BMP280;65855;42.030;13.078;2023-03-25T14:59:54;93516.69;;;22.03
76895;BMP280;65855;42.030;13.078;2023-03-25T15:02:30;93516.94;;;18.94
76895;BMP280;65855;42.030;13.078;2023-03-25T15:04:59;93524.25;;;17.76
76895;BMP280;65855;42.030;13.078;2023-03-25T15:10:24;93529.09;;;18.04
76895;BMP280;65855;42.030;13.078;2023-03-25T15:12:55;93517.53;;;18.33
76895;BMP280;65855;42.030;13.078;2023-03-25T15:16:14;93514.31;;;18.36
76895;BMP280;65855;42.030;13.078;2023-03-25T15:21:10;93506.44;;;17.40
76895;BMP280;65855;42.030;13.078;2023-03-25T15:23:45;93511.16;;;16.51
76895;BMP280;65855;42.030;13.078;2023-03-25T15:32:01;93511.66;;;16.77
76895;BMP280;65855;42.030;13.078;2023-03-25T15:35:08;93513.53;;;16.56
76895;BMP280;65855;42.030;13.078;2023-03-25T15:37:56;93510.72;;;15.97
76895;BMP280;65855;42.030;13.078;2023-03-25T15:54:55;93502.22;;;15.93
76895;BMP280;65855;42.030;13.078;2023-03-25T15:57:34;93503.59;;;15.91
76895;BMP280;65855;42.030;13.078;2023-03-25T16:00:36;93502.13;;;16.10
76895;BMP280;65855;42.030;13.078;2023-03-25T16:03:05;93498.19;;;15.92
76895;BMP280;65855;42.030;13.078;2023-03-25T16:05:38;93494.75;;;15.77
76895;BMP280;65855;42.030;13.078;2023-03-25T16:08:08;93498.78;;;15.49
76895;BMP280;65855;42.030;13.078;2023-03-25T16:10:34;93493.94;;;15.56
76895;BMP280;65855;42.030;13.078;2023-03-25T16:13:05;93494.66;;;15.65
76895;BMP280;65855;42.030;13.078;2023-03-25T16:15:32;93499.31;;;15.63
76895;BMP280;65855;42.030;13.078;2023-03-25T16:18:02;93502.53;;;15.52
76895;BMP280;65855;42.030;13.078;2023-03-25T16:20:28;93497.28;;;15.57
76895;BMP280;65855;42.030;13.078;2023-03-25T16:22:58;93491.44;;;15.28
76895;BMP280;65855;42.030;13.078;2023-03-25T16:25:36;93488.31;;;15.31
76895;BMP280;65855;42.030;13.078;2023-03-25T16:28:03;93497.75;;;15.22
76895;BMP280;65855;42.030;13.078;2023-03-25T16:30:38;93486.09;;;15.21
76895;BMP280;65855;42.030;13.078;2023-03-25T16:35:37;93499.19;;;15.03
76895;BMP280;65855;42.030;13.078;2023-03-25T16:38:04;93496.84;;;14.81
76895;BMP280;65855;42.030;13.078;2023-03-25T16:40:40;93503.47;;;14.74
76895;BMP280;65855;42.030;13.078;2023-03-25T16:45:47;93506.19;;;14.52
76895;BMP280;65855;42.030;13.078;2023-03-25T16:48:18;93512.78;;;14.45
76895;BMP280;65855;42.030;13.078;2023-03-25T16:50:46;93509.78;;;14.51
76895;BMP280;65855;42.030;13.078;2023-03-25T16:53:14;93513.50;;;14.45
76895;BMP280;65855;42.030;13.078;2023-03-25T16:58:24;93516.25;;;14.24
76895;BMP280;65855;42.030;13.078;2023-03-25T17:00:54;93527.41;;;14.15
76895;BMP280;65855;42.030;13.078;2023-03-25T17:03:45;93540.25;;;14.01
76895;BMP280;65855;42.030;13.078;2023-03-25T17:06:19;93544.84;;;13.83
76895;BMP280;65855;42.030;13.078;2023-03-25T17:08:52;93551.25;;;13.89